sensor_id;sensor_type;location;lat;lon;timestamp;pressure;altitude;pressure_sealevel;temperature;humidity
35553;BME280;21656;46.054;13.614;2022-07-29T00:02:01;100407.94;;;23.71;62.74
35553;BME280;21656;46.054;13.614;2022-07-29T00:04:26;100408.13;;;23.56;63.72
35553;BME280;21656;46.054;13.614;2022-07-29T00:06:51;100417.91;;;23.79;62.75
35553;BME280;21656;46.054;13.614;2022-07-29T00:09:17;100416.50;;;23.15;64.85
35553;BME280;21656;46.054;13.614;2022-07-29T00:11:42;100416.56;;;23.42;64.07
35553;BME280;21656;46.054;13.614;2022-07-29T00:14:09;100410.19;;;23.28;64.48
35553;BME280;21656;46.054;13.614;2022-07-29T00:16:34;100410.66;;;23.51;63.73
35553;BME280;21656;46.054;13.614;2022-07-29T00:19:00;100406.31;;;23.09;64.92
35553;BME280;21656;46.054;13.614;2022-07-29T00:21:25;100413.59;;;23.30;64.49
35553;BME280;21656;46.054;13.614;2022-07-29T00:23:50;100412.16;;;23.54;63.63
35553;BME280;21656;46.054;13.614;2022-07-29T00:26:16;100404.38;;;23.77;62.93
35553;BME280;21656;46.054;13.614;2022-07-29T00:28:41;100411.13;;;23.68;62.94
35553;BME280;21656;46.054;13.614;2022-07-29T00:31:07;100406.25;;;23.70;62.47
35553;BME280;21656;46.054;13.614;2022-07-29T00:33:33;100406.63;;;23.41;64.13
35553;BME280;21656;46.054;13.614;2022-07-29T00:35:58;100403.47;;;23.37;64.31
35553;BME280;21656;46.054;13.614;2022-07-29T00:38:24;100403.19;;;23.12;64.67
35553;BME280;21656;46.054;13.614;2022-07-29T00:40:49;100402.31;;;23.11;64.71
35553;BME280;21656;46.054;13.614;2022-07-29T00:43:15;100404.16;;;22.21;68.24
35553;BME280;21656;46.054;13.614;2022-07-29T00:45:42;100393.34;;;22.48;67.43
35553;BME280;21656;46.054;13.614;2022-07-29T00:48:07;100395.00;;;22.42;67.29
35553;BME280;21656;46.054;13.614;2022-07-29T00:50:35;100391.72;;;22.25;68.43
35553;BME280;21656;46.054;13.614;2022-07-29T00:53:00;100382.19;;;22.49;67.61
35553;BME280;21656;46.054;13.614;2022-07-29T00:55:26;100383.81;;;22.85;66.22
35553;BME280;21656;46.054;13.614;2022-07-29T00:57:52;100368.22;;;22.92;65.94
35553;BME280;21656;46.054;13.614;2022-07-29T01:00:24;100377.22;;;23.14;65.43
35553;BME280;21656;46.054;13.614;2022-07-29T01:02:50;100368.59;;;23.44;64.30
35553;BME280;21656;46.054;13.614;2022-07-29T01:05:21;100368.16;;;23.27;64.90
35553;BME280;21656;46.054;13.614;2022-07-29T01:07:51;100366.03;;;23.23;64.98
35553;BME280;21656;46.054;13.614;2022-07-29T01:10:18;100368.63;;;23.57;64.02
35553;BME280;21656;46.054;13.614;2022-07-29T01:12:46;100359.31;;;23.58;63.87
35553;BME280;21656;46.054;13.614;2022-07-29T01:15:13;100367.16;;;22.93;65.53
35553;BME280;21656;46.054;13.614;2022-07-29T01:20:26;100367.63;;;22.56;67.13
35553;BME280;21656;46.054;13.614;2022-07-29T01:28:57;100346.84;;;23.43;64.01
35553;BME280;21656;46.054;13.614;2022-07-29T01:31:30;100351.69;;;23.41;63.82
35553;BME280;21656;46.054;13.614;2022-07-29T01:34:01;100348.53;;;23.37;63.96
35553;BME280;21656;46.054;13.614;2022-07-29T01:36:32;100348.47;;;23.24;64.46
35553;BME280;21656;46.054;13.614;2022-07-29T01:39:06;100343.81;;;23.24;64.35
35553;BME280;21656;46.054;13.614;2022-07-29T01:41:36;100345.78;;;23.37;63.82
35553;BME280;21656;46.054;13.614;2022-07-29T01:44:10;100343.63;;;23.26;64.28
35553;BME280;21656;46.054;13.614;2022-07-29T01:46:38;100343.25;;;22.74;66.23
35553;BME280;21656;46.054;13.614;2022-07-29T01:49:17;100349.66;;;22.46;67.47
35553;BME280;21656;46.054;13.614;2022-07-29T01:51:59;100336.19;;;22.58;66.89
35553;BME280;21656;46.054;13.614;2022-07-29T01:57:06;100347.06;;;22.86;66.31
35553;BME280;21656;46.054;13.614;2022-07-29T01:59:35;100350.31;;;22.48;68.21
35553;BME280;21656;46.054;13.614;2022-07-29T02:02:03;100357.03;;;22.11;69.89
35553;BME280;21656;46.054;13.614;2022-07-29T02:04:31;100360.28;;;22.56;67.88
35553;BME280;21656;46.054;13.614;2022-07-29T02:07:05;100347.41;;;22.57;67.86
35553;BME280;21656;46.054;13.614;2022-07-29T02:09:33;100345.31;;;22.65;67.49
35553;BME280;21656;46.054;13.614;2022-07-29T02:12:02;100349.81;;;22.86;66.31
35553;BME280;21656;46.054;13.614;2022-07-29T02:14:31;100350.38;;;22.68;66.11
35553;BME280;21656;46.054;13.614;2022-07-29T02:17:00;100354.69;;;22.36;67.71
35553;BME280;21656;46.054;13.614;2022-07-29T02:19:27;100352.97;;;22.35;68.10
35553;BME280;21656;46.054;13.614;2022-07-29T02:21:55;100351.06;;;22.77;66.32
35553;BME280;21656;46.054;13.614;2022-07-29T02:24:24;100353.44;;;22.87;66.17
35553;BME280;21656;46.054;13.614;2022-07-29T02:26:51;100349.59;;;22.75;65.90
35553;BME280;21656;46.054;13.614;2022-07-29T02:29:23;100342.84;;;22.84;65.84
35553;BME280;21656;46.054;13.614;2022-07-29T02:31:51;100337.66;;;23.09;65.20
35553;BME280;21656;46.054;13.614;2022-07-29T02:34:18;100337.94;;;23.27;64.81
35553;BME280;21656;46.054;13.614;2022-07-29T02:36:45;100330.34;;;23.36;64.80
35553;BME280;21656;46.054;13.614;2022-07-29T02:39:12;100329.16;;;22.90;67.26
35553;BME280;21656;46.054;13.614;2022-07-29T02:41:44;100336.00;;;23.21;66.11
35553;BME280;21656;46.054;13.614;2022-07-29T02:44:12;100329.03;;;23.32;65.52
35553;BME280;21656;46.054;13.614;2022-07-29T02:46:43;100335.81;;;23.36;65.28
35553;BME280;21656;46.054;13.614;2022-07-29T02:52:45;100329.22;;;23.04;66.17
35553;BME280;21656;46.054;13.614;2022-07-29T02:57:43;100334.09;;;23.22;65.13
35553;BME280;21656;46.054;13.614;2022-07-29T03:00:10;100341.63;;;22.93;65.69
35553;BME280;21656;46.054;13.614;2022-07-29T03:02:44;100340.91;;;22.71;65.98
35553;BME280;21656;46.054;13.614;2022-07-29T03:05:14;100340.84;;;23.06;65.30
35553;BME280;21656;46.054;13.614;2022-07-29T03:07:43;100333.88;;;23.17;64.91
35553;BME280;21656;46.054;13.614;2022-07-29T03:10:12;100341.34;;;22.75;66.25
35553;BME280;21656;46.054;13.614;2022-07-29T03:12:38;100355.81;;;22.48;67.77
35553;BME280;21656;46.054;13.614;2022-07-29T03:15:06;100351.22;;;22.62;67.21
35553;BME280;21656;46.054;13.614;2022-07-29T03:17:31;100359.81;;;22.53;67.57
35553;BME280;21656;46.054;13.614;2022-07-29T03:19:58;100362.31;;;22.47;67.53
35553;BME280;21656;46.054;13.614;2022-07-29T03:22:24;100364.97;;;22.69;66.74
35553;BME280;21656;46.054;13.614;2022-07-29T03:24:50;100359.63;;;22.54;67.35
35553;BME280;21656;46.054;13.614;2022-07-29T03:27:15;100350.84;;;22.79;66.58
35553;BME280;21656;46.054;13.614;2022-07-29T03:29:41;100349.06;;;22.99;65.41
35553;BME280;21656;46.054;13.614;2022-07-29T03:32:07;100324.03;;;22.81;66.71
35553;BME280;21656;46.054;13.614;2022-07-29T03:34:32;100300.66;;;22.91;66.10
35553;BME280;21656;46.054;13.614;2022-07-29T03:36:57;100284.06;;;23.20;65.63
35553;BME280;21656;46.054;13.614;2022-07-29T03:39:27;100264.63;;;23.28;65.16
35553;BME280;21656;46.054;13.614;2022-07-29T03:41:55;100256.28;;;22.75;67.34
35553;BME280;21656;46.054;13.614;2022-07-29T03:44:23;100240.44;;;22.83;66.50
35553;BME280;21656;46.054;13.614;2022-07-29T03:46:51;100235.63;;;22.99;65.96
35553;BME280;21656;46.054;13.614;2022-07-29T03:51:45;100236.72;;;23.04;64.97
35553;BME280;21656;46.054;13.614;2022-07-29T03:54:11;100239.00;;;22.94;65.62
35553;BME280;21656;46.054;13.614;2022-07-29T03:56:42;100239.66;;;23.16;64.80
35553;BME280;21656;46.054;13.614;2022-07-29T03:59:10;100241.53;;;22.96;64.77
35553;BME280;21656;46.054;13.614;2022-07-29T04:01:37;100233.75;;;22.99;64.66
35553;BME280;21656;46.054;13.614;2022-07-29T04:04:04;100232.28;;;23.17;63.44
35553;BME280;21656;46.054;13.614;2022-07-29T04:06:38;100228.25;;;23.39;62.53
35553;BME280;21656;46.054;13.614;2022-07-29T04:09:03;100245.16;;;23.63;60.16
35553;BME280;21656;46.054;13.614;2022-07-29T04:11:29;100242.81;;;23.79;60.37
35553;BME280;21656;46.054;13.614;2022-07-29T04:13:54;100246.00;;;23.56;61.73
35553;BME280;21656;46.054;13.614;2022-07-29T04:16:19;100253.41;;;23.76;60.74
35553;BME280;21656;46.054;13.614;2022-07-29T04:18:45;100262.28;;;23.78;61.15
35553;BME280;21656;46.054;13.614;2022-07-29T04:21:10;100265.25;;;23.83;60.89
35553;BME280;21656;46.054;13.614;2022-07-29T04:23:36;100273.91;;;23.87;60.90
35553;BME280;21656;46.054;13.614;2022-07-29T04:26:01;100278.97;;;23.90;61.02
35553;BME280;21656;46.054;13.614;2022-07-29T04:28:26;100287.88;;;23.85;60.91
35553;BME280;21656;46.054;13.614;2022-07-29T04:30:52;100287.66;;;23.87;60.82
35553;BME280;21656;46.054;13.614;2022-07-29T04:33:17;100286.59;;;23.74;61.45
35553;BME280;21656;46.054;13.614;2022-07-29T04:35:42;100292.72;;;23.90;60.96
35553;BME280;21656;46.054;13.614;2022-07-29T04:38:08;100303.09;;;23.88;61.01
35553;BME280;21656;46.054;13.614;2022-07-29T04:40:33;100306.25;;;23.85;61.00
35553;BME280;21656;46.054;13.614;2022-07-29T04:43:00;100310.69;;;23.92;60.92
35553;BME280;21656;46.054;13.614;2022-07-29T04:45:26;100316.19;;;23.92;60.95
35553;BME280;21656;46.054;13.614;2022-07-29T04:47:51;100315.78;;;23.95;61.01
35553;BME280;21656;46.054;13.614;2022-07-29T04:50:17;100321.88;;;23.97;60.57
35553;BME280;21656;46.054;13.614;2022-07-29T04:52:42;100318.28;;;24.04;60.60
35553;BME280;21656;46.054;13.614;2022-07-29T04:55:08;100315.53;;;24.04;60.80
35553;BME280;21656;46.054;13.614;2022-07-29T04:57:33;100321.25;;;24.09;60.65
35553;BME280;21656;46.054;13.614;2022-07-29T04:59:59;100323.16;;;24.08;60.94
35553;BME280;21656;46.054;13.614;2022-07-29T05:02:25;100326.94;;;24.07;61.23
35553;BME280;21656;46.054;13.614;2022-07-29T05:04:50;100327.19;;;24.06;61.46
35553;BME280;21656;46.054;13.614;2022-07-29T05:07:16;100333.53;;;24.06;60.65
35553;BME280;21656;46.054;13.614;2022-07-29T05:09:41;100333.75;;;23.98;61.40
35553;BME280;21656;46.054;13.614;2022-07-29T05:12:07;100341.78;;;23.86;62.59
35553;BME280;21656;46.054;13.614;2022-07-29T05:14:32;100343.06;;;23.90;62.33
35553;BME280;21656;46.054;13.614;2022-07-29T05:16:58;100347.91;;;23.95;62.54
35553;BME280;21656;46.054;13.614;2022-07-29T05:19:23;100347.94;;;23.88;63.70
35553;BME280;21656;46.054;13.614;2022-07-29T05:21:48;100346.44;;;23.72;63.92
35553;BME280;21656;46.054;13.614;2022-07-29T05:24:15;100343.47;;;23.61;65.04
35553;BME280;21656;46.054;13.614;2022-07-29T05:26:41;100340.28;;;23.57;64.30
35553;BME280;21656;46.054;13.614;2022-07-29T05:29:06;100352.31;;;23.69;63.92
35553;BME280;21656;46.054;13.614;2022-07-29T05:31:31;100351.72;;;23.87;63.30
35553;BME280;21656;46.054;13.614;2022-07-29T05:33:58;100354.47;;;23.94;63.43
35553;BME280;21656;46.054;13.614;2022-07-29T05:36:24;100353.22;;;24.03;63.08
35553;BME280;21656;46.054;13.614;2022-07-29T05:38:49;100362.94;;;24.06;62.82
35553;BME280;21656;46.054;13.614;2022-07-29T05:41:17;100356.13;;;24.15;62.20
35553;BME280;21656;46.054;13.614;2022-07-29T05:43:42;100355.69;;;24.25;61.18
35553;BME280;21656;46.054;13.614;2022-07-29T05:46:08;100358.84;;;24.35;60.55
35553;BME280;21656;46.054;13.614;2022-07-29T05:48:33;100358.22;;;24.33;59.92
35553;BME280;21656;46.054;13.614;2022-07-29T05:50:58;100356.94;;;24.35;59.33
35553;BME280;21656;46.054;13.614;2022-07-29T05:53:24;100349.94;;;24.39;59.50
35553;BME280;21656;46.054;13.614;2022-07-29T05:55:50;100362.66;;;24.47;59.44
35553;BME280;21656;46.054;13.614;2022-07-29T05:58:15;100354.59;;;24.52;58.98
35553;BME280;21656;46.054;13.614;2022-07-29T06:00:41;100355.88;;;24.56;58.62
35553;BME280;21656;46.054;13.614;2022-07-29T06:03:07;100358.00;;;24.48;58.87
35553;BME280;21656;46.054;13.614;2022-07-29T06:05:32;100360.97;;;24.46;58.62
35553;BME280;21656;46.054;13.614;2022-07-29T06:07:58;100354.41;;;24.47;58.75
35553;BME280;21656;46.054;13.614;2022-07-29T06:10:23;100357.34;;;24.59;59.01
35553;BME280;21656;46.054;13.614;2022-07-29T06:12:49;100357.91;;;24.74;58.43
35553;BME280;21656;46.054;13.614;2022-07-29T06:15:15;100359.34;;;24.83;58.09
35553;BME280;21656;46.054;13.614;2022-07-29T06:17:40;100362.69;;;24.92;57.81
35553;BME280;21656;46.054;13.614;2022-07-29T06:20:06;100367.28;;;25.05;57.59
35553;BME280;21656;46.054;13.614;2022-07-29T06:22:31;100361.94;;;25.17;57.20
35553;BME280;21656;46.054;13.614;2022-07-29T06:24:57;100362.13;;;25.22;56.56
35553;BME280;21656;46.054;13.614;2022-07-29T06:27:22;100371.00;;;25.30;56.49
35553;BME280;21656;46.054;13.614;2022-07-29T06:29:47;100367.97;;;25.39;56.35
35553;BME280;21656;46.054;13.614;2022-07-29T06:32:13;100373.19;;;25.47;56.05
35553;BME280;21656;46.054;13.614;2022-07-29T06:34:38;100374.84;;;25.55;55.57
35553;BME280;21656;46.054;13.614;2022-07-29T06:37:07;100370.13;;;25.62;55.64
35553;BME280;21656;46.054;13.614;2022-07-29T06:39:36;100368.63;;;25.66;54.62
35553;BME280;21656;46.054;13.614;2022-07-29T06:42:03;100377.69;;;25.73;54.67
35553;BME280;21656;46.054;13.614;2022-07-29T06:44:29;100383.34;;;25.85;54.65
35553;BME280;21656;46.054;13.614;2022-07-29T06:46:55;100374.78;;;25.93;54.88
35553;BME280;21656;46.054;13.614;2022-07-29T06:49:21;100373.03;;;25.99;54.43
35553;BME280;21656;46.054;13.614;2022-07-29T06:51:47;100378.88;;;26.09;54.41
35553;BME280;21656;46.054;13.614;2022-07-29T06:54:12;100371.81;;;26.13;53.94
35553;BME280;21656;46.054;13.614;2022-07-29T06:56:37;100370.78;;;26.32;53.67
35553;BME280;21656;46.054;13.614;2022-07-29T06:59:04;100370.25;;;26.42;52.76
35553;BME280;21656;46.054;13.614;2022-07-29T07:01:29;100383.31;;;26.53;52.16
35553;BME280;21656;46.054;13.614;2022-07-29T07:03:55;100372.00;;;26.62;52.06
35553;BME280;21656;46.054;13.614;2022-07-29T07:06:21;100364.09;;;26.65;50.96
35553;BME280;21656;46.054;13.614;2022-07-29T07:08:46;100363.91;;;26.78;51.52
35553;BME280;21656;46.054;13.614;2022-07-29T07:11:11;100365.50;;;26.86;51.19
35553;BME280;21656;46.054;13.614;2022-07-29T07:13:37;100357.50;;;26.96;50.74
35553;BME280;21656;46.054;13.614;2022-07-29T07:16:03;100356.47;;;27.09;50.28
35553;BME280;21656;46.054;13.614;2022-07-29T07:18:28;100363.84;;;27.15;49.76
35553;BME280;21656;46.054;13.614;2022-07-29T07:20:54;100352.34;;;27.18;49.58
35553;BME280;21656;46.054;13.614;2022-07-29T07:23:19;100358.16;;;27.29;49.36
35553;BME280;21656;46.054;13.614;2022-07-29T07:25:46;100353.03;;;27.32;49.37
35553;BME280;21656;46.054;13.614;2022-07-29T07:28:13;100349.91;;;27.40;48.77
35553;BME280;21656;46.054;13.614;2022-07-29T07:30:39;100359.78;;;27.48;48.65
35553;BME280;21656;46.054;13.614;2022-07-29T07:33:05;100356.66;;;27.56;48.86
35553;BME280;21656;46.054;13.614;2022-07-29T07:35:30;100345.66;;;27.68;48.38
35553;BME280;21656;46.054;13.614;2022-07-29T07:37:56;100352.13;;;27.74;47.93
35553;BME280;21656;46.054;13.614;2022-07-29T07:40:22;100348.34;;;27.86;47.29
35553;BME280;21656;46.054;13.614;2022-07-29T07:42:47;100338.34;;;27.97;46.82
35553;BME280;21656;46.054;13.614;2022-07-29T07:45:13;100342.44;;;28.06;47.51
35553;BME280;21656;46.054;13.614;2022-07-29T07:47:39;100341.72;;;28.11;46.64
35553;BME280;21656;46.054;13.614;2022-07-29T07:50:06;100338.69;;;28.13;46.71
35553;BME280;21656;46.054;13.614;2022-07-29T07:52:32;100331.34;;;28.30;46.01
35553;BME280;21656;46.054;13.614;2022-07-29T07:54:57;100339.03;;;28.40;46.25
35553;BME280;21656;46.054;13.614;2022-07-29T07:57:23;100338.69;;;28.48;45.73
35553;BME280;21656;46.054;13.614;2022-07-29T07:59:48;100340.50;;;28.54;45.60
35553;BME280;21656;46.054;13.614;2022-07-29T08:02:14;100340.72;;;28.64;43.10
35553;BME280;21656;46.054;13.614;2022-07-29T08:04:39;100338.53;;;28.66;42.24
35553;BME280;21656;46.054;13.614;2022-07-29T08:07:06;100344.19;;;28.71;42.68
35553;BME280;21656;46.054;13.614;2022-07-29T08:09:33;100336.44;;;28.85;41.25
35553;BME280;21656;46.054;13.614;2022-07-29T08:12:00;100332.66;;;28.91;42.05
35553;BME280;21656;46.054;13.614;2022-07-29T08:14:30;100324.81;;;29.00;41.61
35553;BME280;21656;46.054;13.614;2022-07-29T08:16:55;100324.94;;;29.05;40.60
35553;BME280;21656;46.054;13.614;2022-07-29T08:19:20;100325.03;;;29.10;40.13
35553;BME280;21656;46.054;13.614;2022-07-29T08:21:46;100327.91;;;29.15;40.53
35553;BME280;21656;46.054;13.614;2022-07-29T08:24:11;100323.88;;;29.23;40.93
35553;BME280;21656;46.054;13.614;2022-07-29T08:26:55;100332.47;;;29.38;39.66
35553;BME280;21656;46.054;13.614;2022-07-29T08:29:21;100324.31;;;29.49;40.13
35553;BME280;21656;46.054;13.614;2022-07-29T08:31:46;100326.44;;;29.58;39.98
35553;BME280;21656;46.054;13.614;2022-07-29T08:34:11;100325.59;;;29.58;39.86
35553;BME280;21656;46.054;13.614;2022-07-29T08:36:37;100325.94;;;29.62;38.69
35553;BME280;21656;46.054;13.614;2022-07-29T08:39:04;100332.31;;;29.62;38.81
35553;BME280;21656;46.054;13.614;2022-07-29T08:41:29;100324.53;;;29.76;38.65
35553;BME280;21656;46.054;13.614;2022-07-29T08:43:55;100326.03;;;29.84;38.81
35553;BME280;21656;46.054;13.614;2022-07-29T08:46:21;100327.78;;;29.90;38.26
35553;BME280;21656;46.054;13.614;2022-07-29T08:48:47;100325.09;;;29.95;37.71
35553;BME280;21656;46.054;13.614;2022-07-29T08:51:19;100329.59;;;30.18;36.12
35553;BME280;21656;46.054;13.614;2022-07-29T08:53:48;100329.09;;;30.21;36.70
35553;BME280;21656;46.054;13.614;2022-07-29T08:56:15;100321.19;;;30.30;38.29
35553;BME280;21656;46.054;13.614;2022-07-29T08:58:47;100331.59;;;30.39;37.29
35553;BME280;21656;46.054;13.614;2022-07-29T09:01:17;100323.78;;;30.58;34.73
35553;BME280;21656;46.054;13.614;2022-07-29T09:03:44;100324.66;;;30.59;35.18
35553;BME280;21656;46.054;13.614;2022-07-29T09:06:13;100326.13;;;30.66;34.95
35553;BME280;21656;46.054;13.614;2022-07-29T09:08:39;100321.72;;;30.71;34.14
35553;BME280;21656;46.054;13.614;2022-07-29T09:11:04;100325.88;;;30.90;33.56
35553;BME280;21656;46.054;13.614;2022-07-29T09:13:32;100313.97;;;30.95;34.19
35553;BME280;21656;46.054;13.614;2022-07-29T09:15:57;100319.53;;;30.95;34.21
35553;BME280;21656;46.054;13.614;2022-07-29T09:21:04;100305.03;;;30.71;35.80
35553;BME280;21656;46.054;13.614;2022-07-29T09:24:09;100307.63;;;30.77;35.43
35553;BME280;21656;46.054;13.614;2022-07-29T09:26:45;100300.13;;;30.78;35.52
35553;BME280;21656;46.054;13.614;2022-07-29T09:29:16;100306.63;;;30.83;35.16
35553;BME280;21656;46.054;13.614;2022-07-29T09:31:44;100303.94;;;30.94;35.06
35553;BME280;21656;46.054;13.614;2022-07-29T09:34:10;100303.50;;;31.02;34.10
35553;BME280;21656;46.054;13.614;2022-07-29T09:36:41;100302.09;;;30.99;34.33
35553;BME280;21656;46.054;13.614;2022-07-29T09:39:06;100299.13;;;31.11;33.60
35553;BME280;21656;46.054;13.614;2022-07-29T09:41:53;100298.91;;;31.18;34.20
35553;BME280;21656;46.054;13.614;2022-07-29T09:44:20;100297.28;;;31.22;33.81
35553;BME280;21656;46.054;13.614;2022-07-29T09:47:01;100299.41;;;31.09;34.56
35553;BME280;21656;46.054;13.614;2022-07-29T09:49:32;100303.66;;;31.17;34.81
35553;BME280;21656;46.054;13.614;2022-07-29T09:52:05;100307.06;;;31.29;34.08
35553;BME280;21656;46.054;13.614;2022-07-29T09:54:31;100306.03;;;31.36;33.93
35553;BME280;21656;46.054;13.614;2022-07-29T09:57:05;100313.06;;;31.38;32.44
35553;BME280;21656;46.054;13.614;2022-07-29T09:59:31;100305.91;;;31.47;33.43
35553;BME280;21656;46.054;13.614;2022-07-29T10:01:57;100303.13;;;31.47;32.86
35553;BME280;21656;46.054;13.614;2022-07-29T10:04:22;100295.91;;;31.51;33.08
35553;BME280;21656;46.054;13.614;2022-07-29T10:07:01;100296.28;;;31.60;33.77
35553;BME280;21656;46.054;13.614;2022-07-29T10:09:27;100289.63;;;31.66;33.70
35553;BME280;21656;46.054;13.614;2022-07-29T10:12:09;100295.88;;;31.84;33.35
35553;BME280;21656;46.054;13.614;2022-07-29T10:14:37;100285.59;;;31.84;32.83
35553;BME280;21656;46.054;13.614;2022-07-29T10:17:03;100287.28;;;31.90;33.34
35553;BME280;21656;46.054;13.614;2022-07-29T10:19:30;100291.28;;;32.00;33.35
35553;BME280;21656;46.054;13.614;2022-07-29T10:22:00;100289.78;;;31.87;33.43
35553;BME280;21656;46.054;13.614;2022-07-29T10:24:28;100285.03;;;31.87;33.92
35553;BME280;21656;46.054;13.614;2022-07-29T10:26:56;100281.44;;;31.92;33.52
35553;BME280;21656;46.054;13.614;2022-07-29T10:29:22;100283.47;;;31.97;33.54
35553;BME280;21656;46.054;13.614;2022-07-29T10:35:01;100275.22;;;31.74;32.90
35553;BME280;21656;46.054;13.614;2022-07-29T10:37:52;100278.03;;;31.80;32.77
35553;BME280;21656;46.054;13.614;2022-07-29T10:43:29;100284.13;;;32.14;32.00
35553;BME280;21656;46.054;13.614;2022-07-29T10:45:59;100285.00;;;32.20;31.71
35553;BME280;21656;46.054;13.614;2022-07-29T10:48:26;100283.84;;;32.15;32.74
35553;BME280;21656;46.054;13.614;2022-07-29T10:53:24;100271.00;;;32.09;31.97
35553;BME280;21656;46.054;13.614;2022-07-29T10:55:51;100268.44;;;31.98;32.70
35553;BME280;21656;46.054;13.614;2022-07-29T10:58:19;100257.34;;;32.08;33.92
35553;BME280;21656;46.054;13.614;2022-07-29T11:00:52;100255.00;;;32.37;33.88
35553;BME280;21656;46.054;13.614;2022-07-29T11:03:46;100257.78;;;32.42;32.34
35553;BME280;21656;46.054;13.614;2022-07-29T11:06:13;100260.00;;;32.40;32.73
35553;BME280;21656;46.054;13.614;2022-07-29T11:08:38;100257.88;;;32.52;32.73
35553;BME280;21656;46.054;13.614;2022-07-29T11:16:14;100253.94;;;32.48;32.50
35553;BME280;21656;46.054;13.614;2022-07-29T11:21:38;100245.28;;;32.45;32.03
35553;BME280;21656;46.054;13.614;2022-07-29T11:24:14;100242.56;;;32.55;31.98
35553;BME280;21656;46.054;13.614;2022-07-29T11:26:41;100241.47;;;32.76;31.06
35553;BME280;21656;46.054;13.614;2022-07-29T11:29:19;100252.59;;;32.66;31.77
35553;BME280;21656;46.054;13.614;2022-07-29T11:31:50;100243.19;;;32.93;31.30
35553;BME280;21656;46.054;13.614;2022-07-29T11:34:28;100241.28;;;33.03;31.24
35553;BME280;21656;46.054;13.614;2022-07-29T11:39:42;100239.06;;;33.11;31.71
35553;BME280;21656;46.054;13.614;2022-07-29T11:44:59;100240.97;;;32.95;30.90
35553;BME280;21656;46.054;13.614;2022-07-29T11:47:26;100238.22;;;33.05;31.48
35553;BME280;21656;46.054;13.614;2022-07-29T11:49:53;100238.78;;;33.22;30.44
35553;BME280;21656;46.054;13.614;2022-07-29T11:52:20;100232.66;;;33.36;30.61
35553;BME280;21656;46.054;13.614;2022-07-29T11:54:50;100236.56;;;33.65;30.91
35553;BME280;21656;46.054;13.614;2022-07-29T11:57:17;100237.59;;;33.90;30.22
35553;BME280;21656;46.054;13.614;2022-07-29T11:59:44;100232.91;;;33.70;30.12
35553;BME280;21656;46.054;13.614;2022-07-29T12:02:11;100232.84;;;34.01;29.94
35553;BME280;21656;46.054;13.614;2022-07-29T12:04:53;100227.53;;;33.99;30.17
35553;BME280;21656;46.054;13.614;2022-07-29T12:07:30;100226.50;;;33.70;30.00
35553;BME280;21656;46.054;13.614;2022-07-29T12:09:56;100225.91;;;33.88;29.51
35553;BME280;21656;46.054;13.614;2022-07-29T12:12:22;100224.00;;;33.42;29.57
35553;BME280;21656;46.054;13.614;2022-07-29T12:14:48;100223.13;;;33.73;30.34
35553;BME280;21656;46.054;13.614;2022-07-29T12:17:29;100220.28;;;34.14;29.18
35553;BME280;21656;46.054;13.614;2022-07-29T12:19:55;100222.88;;;33.64;29.66
35553;BME280;21656;46.054;13.614;2022-07-29T12:22:37;100216.13;;;33.96;29.59
35553;BME280;21656;46.054;13.614;2022-07-29T12:25:06;100212.06;;;34.33;29.93
35553;BME280;21656;46.054;13.614;2022-07-29T12:27:32;100215.06;;;34.51;29.59
35553;BME280;21656;46.054;13.614;2022-07-29T12:30:05;100222.06;;;33.63;30.11
35553;BME280;21656;46.054;13.614;2022-07-29T12:32:37;100213.09;;;33.72;30.86
35553;BME280;21656;46.054;13.614;2022-07-29T12:35:12;100195.47;;;33.86;30.92
35553;BME280;21656;46.054;13.614;2022-07-29T12:37:40;100200.13;;;34.22;29.81
35553;BME280;21656;46.054;13.614;2022-07-29T12:40:08;100189.72;;;34.33;29.90
35553;BME280;21656;46.054;13.614;2022-07-29T12:42:34;100189.00;;;34.56;29.59
35553;BME280;21656;46.054;13.614;2022-07-29T12:45:00;100201.03;;;34.67;29.14
35553;BME280;21656;46.054;13.614;2022-07-29T12:47:27;100194.50;;;34.82;29.31
35553;BME280;21656;46.054;13.614;2022-07-29T12:50:13;100188.22;;;34.95;29.04
35553;BME280;21656;46.054;13.614;2022-07-29T12:52:43;100196.72;;;35.19;28.18
35553;BME280;21656;46.054;13.614;2022-07-29T12:55:09;100190.44;;;34.98;29.12
35553;BME280;21656;46.054;13.614;2022-07-29T12:57:48;100199.22;;;34.81;29.63
35553;BME280;21656;46.054;13.614;2022-07-29T13:00:15;100194.25;;;34.73;29.32
35553;BME280;21656;46.054;13.614;2022-07-29T13:02:41;100189.03;;;35.01;29.79
35553;BME280;21656;46.054;13.614;2022-07-29T13:05:08;100192.34;;;35.37;29.46
35553;BME280;21656;46.054;13.614;2022-07-29T13:07:35;100208.13;;;35.57;29.06
35553;BME280;21656;46.054;13.614;2022-07-29T13:12:35;100205.28;;;34.49;29.76
35553;BME280;21656;46.054;13.614;2022-07-29T13:15:13;100185.63;;;34.69;29.79
35553;BME280;21656;46.054;13.614;2022-07-29T13:17:43;100183.19;;;34.97;30.39
35553;BME280;21656;46.054;13.614;2022-07-29T13:20:11;100188.31;;;35.19;29.27
35553;BME280;21656;46.054;13.614;2022-07-29T13:22:38;100185.03;;;35.12;29.22
35553;BME280;21656;46.054;13.614;2022-07-29T13:25:04;100177.63;;;34.92;30.00
35553;BME280;21656;46.054;13.614;2022-07-29T13:27:33;100186.78;;;35.03;30.07
35553;BME280;21656;46.054;13.614;2022-07-29T13:30:01;100182.75;;;34.80;30.30
35553;BME280;21656;46.054;13.614;2022-07-29T13:32:28;100182.72;;;34.85;30.70